createdAt,value
2019-03-23T00:00:45.620Z,98.11
2019-03-23T00:01:45.608Z,98.00
2019-03-23T00:02:45.604Z,98.11
2019-03-23T00:03:45.593Z,98.11
2019-03-23T00:04:45.575Z,98.11
2019-03-23T00:05:45.559Z,98.11
2019-03-23T00:06:45.550Z,97.85
2019-03-23T00:07:45.549Z,97.80
2019-03-23T00:08:45.566Z,98.21
2019-03-23T00:09:45.524Z,97.39
2019-03-23T00:10:45.515Z,97.90
2019-03-23T00:11:45.495Z,97.95
2019-03-23T00:12:45.491Z,98.11
2019-03-23T00:13:45.478Z,98.15
2019-03-23T00:14:45.495Z,98.11
2019-03-23T00:15:45.470Z,98.15
2019-03-23T00:16:45.447Z,98.11
2019-03-23T00:17:45.430Z,98.05
2019-03-23T00:18:45.483Z,98.15
2019-03-23T00:19:45.408Z,98.15
2019-03-23T00:20:45.398Z,98.15
2019-03-23T00:21:45.395Z,98.05
2019-03-23T00:22:45.379Z,98.05
2019-03-23T00:23:45.367Z,97.95
2019-03-23T00:24:45.369Z,97.90
2019-03-23T00:25:45.345Z,97.95
2019-03-23T00:26:47.976Z,98.25
2019-03-23T00:27:45.325Z,98.25
2019-03-23T00:28:45.313Z,98.05
2019-03-23T00:29:45.308Z,98.25
2019-03-23T00:30:45.337Z,98.25
2019-03-23T00:31:45.279Z,98.46
2019-03-23T00:32:45.271Z,98.36
2019-03-23T00:33:45.255Z,98.46
2019-03-23T00:34:45.246Z,98.25
2019-03-23T00:35:45.235Z,98.57
2019-03-23T00:36:45.291Z,98.46
2019-03-23T00:37:45.216Z,98.57
2019-03-23T00:38:45.214Z,98.46
2019-03-23T00:39:45.202Z,98.46
2019-03-23T00:40:45.180Z,98.25
2019-03-23T00:41:45.175Z,98.57
2019-03-23T00:42:45.166Z,98.36
2019-03-23T00:43:45.152Z,98.46
2019-03-23T00:44:45.187Z,98.46
2019-03-23T00:45:45.128Z,98.36
2019-03-23T00:46:45.114Z,98.36
2019-03-23T00:47:45.106Z,98.25
2019-03-23T00:48:45.098Z,98.36
2019-03-23T00:49:45.147Z,98.67
2019-03-23T00:50:45.075Z,98.92
2019-03-23T00:51:45.064Z,98.97
2019-03-23T00:52:45.099Z,98.77
2019-03-23T00:53:45.044Z,98.82
2019-03-23T00:54:45.031Z,98.82
2019-03-23T00:55:45.023Z,98.88
2019-03-23T00:56:45.017Z,98.57
2019-03-23T00:57:45.004Z,98.57
2019-03-23T00:58:44.989Z,98.46
2019-03-23T00:59:44.977Z,98.36
2019-03-23T01:00:44.969Z,98.41
2019-03-23T01:01:44.970Z,98.36
2019-03-23T01:02:44.942Z,98.92
2019-03-23T01:03:44.980Z,98.57
2019-03-23T01:04:44.923Z,98.71
2019-03-23T01:05:44.907Z,98.82
2019-03-23T01:06:52.009Z,98.82
2019-03-23T01:07:45.890Z,98.71
2019-03-23T01:08:44.879Z,98.97
2019-03-23T01:09:44.915Z,98.92
2019-03-23T01:10:44.851Z,98.71
2019-03-23T01:11:44.849Z,99.02
2019-03-23T01:12:44.846Z,99.02
2019-03-23T01:13:44.843Z,99.02
2019-03-23T01:14:44.966Z,99.02
2019-03-23T01:15:44.806Z,98.82
2019-03-23T01:16:44.791Z,98.92
2019-03-23T01:17:44.776Z,98.82
2019-03-23T01:18:44.791Z,98.82
2019-03-23T01:19:44.758Z,99.23
2019-03-23T01:20:49.618Z,99.43
2019-03-23T01:21:45.738Z,99.23
2019-03-23T01:22:44.722Z,99.02
2019-03-23T01:23:44.829Z,99.33
2019-03-23T01:24:44.699Z,99.02
2019-03-23T01:25:44.693Z,98.92
2019-03-23T01:26:44.677Z,99.33
2019-03-23T01:27:44.675Z,99.33
2019-03-23T01:28:44.661Z,99.02
2019-03-23T01:29:44.712Z,99.02
2019-03-23T01:30:44.634Z,99.02
2019-03-23T01:31:44.623Z,98.92
2019-03-23T01:32:44.613Z,98.82
2019-03-23T01:33:44.607Z,98.61
2019-03-23T01:34:44.665Z,98.76
2019-03-23T01:35:44.583Z,98.86
2019-03-23T01:36:44.570Z,99.02
2019-03-23T01:37:44.564Z,99.23
2019-03-23T01:38:44.551Z,99.33
2019-03-23T01:39:44.543Z,99.43
2019-03-23T01:40:44.573Z,99.17
2019-03-23T01:41:44.563Z,99.48
2019-03-23T01:42:44.506Z,99.38
2019-03-23T01:43:44.494Z,99.27
2019-03-23T01:44:44.483Z,99.27
2019-03-23T01:45:44.485Z,99.17
2019-03-23T01:46:44.469Z,99.58
2019-03-23T01:47:44.448Z,99.79
2019-03-23T01:48:44.442Z,99.48
2019-03-23T01:49:44.431Z,99.99
2019-03-23T01:50:44.458Z,99.99
2019-03-23T01:51:44.410Z,99.99
2019-03-23T01:52:44.392Z,99.99
2019-03-23T01:53:44.388Z,99.99
2019-03-23T01:54:44.374Z,99.69
2019-03-23T01:55:44.360Z,99.79
2019-03-23T01:56:44.401Z,99.90
2019-03-23T01:57:44.343Z,99.99
2019-03-23T01:58:44.334Z,99.99
2019-03-23T01:59:44.315Z,99.79
2019-03-23T02:00:44.317Z,99.90
2019-03-23T02:01:44.347Z,99.90
2019-03-23T02:02:44.287Z,99.90
2019-03-23T02:03:44.272Z,99.90
2019-03-23T02:04:44.260Z,99.90
2019-03-23T02:05:44.253Z,99.99
2019-03-23T02:06:44.250Z,99.99
2019-03-23T02:07:44.235Z,99.99
2019-03-23T02:08:44.265Z,99.99
2019-03-23T02:09:44.207Z,99.99
2019-03-23T02:10:44.231Z,99.99
2019-03-23T02:11:44.187Z,99.99
2019-03-23T02:12:44.177Z,99.99
2019-03-23T02:13:44.210Z,99.99
2019-03-23T02:14:44.151Z,99.99
2019-03-23T02:15:44.144Z,99.99
2019-03-23T02:16:44.132Z,99.99
2019-03-23T02:17:44.116Z,99.99
2019-03-23T02:18:44.195Z,99.99
2019-03-23T02:19:44.099Z,99.99
2019-03-23T02:20:44.091Z,99.99
2019-03-23T02:21:44.074Z,99.99
2019-03-23T02:22:44.064Z,99.94
2019-03-23T02:23:44.061Z,99.99
2019-03-23T02:24:44.068Z,99.99
2019-03-23T02:25:44.035Z,99.99
2019-03-23T02:26:44.024Z,99.99
2019-03-23T02:27:44.020Z,99.99
2019-03-23T02:28:44.002Z,99.99
2019-03-23T02:29:44.039Z,99.99
2019-03-23T02:30:43.983Z,99.99
2019-03-23T02:31:43.980Z,99.99
2019-03-23T02:32:44.039Z,99.99
2019-03-23T02:33:43.950Z,99.99
2019-03-23T02:34:43.941Z,99.99
2019-03-23T02:35:43.950Z,99.99
2019-03-23T02:36:43.916Z,99.99
2019-03-23T02:37:43.915Z,99.99
2019-03-23T02:38:43.895Z,99.99
2019-03-23T02:39:43.932Z,99.99
2019-03-23T02:40:43.887Z,99.99
2019-03-23T02:41:43.854Z,99.99
2019-03-23T02:42:43.911Z,99.99
2019-03-23T02:43:43.833Z,99.99
2019-03-23T02:44:43.915Z,99.99
2019-03-23T02:45:43.812Z,99.99
2019-03-23T02:46:43.804Z,99.99
2019-03-23T02:47:43.791Z,99.99
2019-03-23T02:48:43.788Z,99.99
2019-03-23T02:49:43.776Z,99.99
2019-03-23T02:50:43.845Z,99.99
2019-03-23T02:51:43.745Z,99.99
2019-03-23T02:52:43.733Z,99.99
2019-03-23T02:53:43.723Z,99.99
2019-03-23T02:54:43.717Z,99.99
2019-03-23T02:55:43.759Z,99.99
2019-03-23T02:56:43.697Z,99.99
2019-03-23T02:57:43.742Z,99.99
2019-03-23T02:58:43.686Z,99.99
2019-03-23T02:59:43.657Z,99.99
2019-03-23T03:00:43.648Z,99.99
2019-03-23T03:01:43.637Z,99.99
2019-03-23T03:02:43.625Z,99.99
2019-03-23T03:03:43.661Z,99.99
2019-03-23T03:04:43.609Z,99.99
2019-03-23T03:05:43.599Z,99.99
2019-03-23T03:06:43.581Z,99.99
2019-03-23T03:07:44.117Z,99.99
2019-03-23T03:08:43.562Z,99.99
2019-03-23T03:09:43.556Z,99.99
2019-03-23T03:10:43.539Z,99.99
2019-03-23T03:11:43.535Z,99.99
2019-03-23T03:12:43.584Z,99.99
2019-03-23T03:13:43.510Z,99.99
2019-03-23T03:14:43.496Z,99.99
2019-03-23T03:15:43.497Z,99.99
2019-03-23T03:16:43.481Z,99.99
2019-03-23T03:17:43.507Z,99.99
2019-03-23T03:18:44.930Z,99.99
2019-03-23T03:19:43.473Z,99.99
2019-03-23T03:20:43.437Z,99.99
2019-03-23T03:21:43.417Z,99.99
2019-03-23T03:22:43.431Z,99.99
2019-03-23T03:23:43.465Z,99.99
2019-03-23T03:24:43.385Z,99.99
2019-03-23T03:25:43.378Z,99.99
2019-03-23T03:26:43.361Z,99.99
2019-03-23T03:27:43.422Z,99.99
2019-03-23T03:28:43.338Z,99.99
2019-03-23T03:29:43.332Z,99.99
2019-03-23T03:30:43.325Z,99.99
2019-03-23T03:31:43.304Z,99.99
2019-03-23T03:32:43.343Z,99.99
2019-03-23T03:33:43.281Z,99.99
2019-03-23T03:34:43.289Z,99.99
2019-03-23T03:35:43.262Z,99.99
2019-03-23T03:36:43.256Z,99.99
2019-03-23T03:37:55.768Z,99.99
2019-03-23T03:38:44.233Z,99.99
2019-03-23T03:39:43.225Z,99.99
2019-03-23T03:40:43.213Z,99.99
2019-03-23T03:41:43.207Z,99.99
2019-03-23T03:42:43.246Z,99.99
2019-03-23T03:43:43.225Z,99.99
2019-03-23T03:44:43.165Z,99.99
2019-03-23T03:45:43.158Z,99.99
2019-03-23T03:46:43.156Z,99.99
2019-03-23T03:47:43.176Z,99.99
2019-03-23T03:48:43.129Z,99.99
2019-03-23T03:49:43.105Z,99.99
2019-03-23T03:50:43.103Z,99.99
2019-03-23T03:51:43.087Z,99.99
2019-03-23T03:52:43.115Z,99.99
2019-03-23T03:53:43.067Z,99.99
2019-03-23T03:54:43.054Z,99.99
2019-03-23T03:55:43.050Z,99.99
2019-03-23T03:56:43.034Z,99.99
2019-03-23T03:57:43.023Z,99.99
2019-03-23T03:58:43.056Z,99.99
2019-03-23T03:59:50.588Z,99.99
2019-03-23T04:00:42.992Z,99.99
2019-03-23T04:01:42.974Z,99.99
2019-03-23T04:02:42.969Z,99.99
2019-03-23T04:03:43.025Z,99.99
2019-03-23T04:04:42.988Z,99.99
2019-03-23T04:05:42.931Z,99.99
2019-03-23T04:06:42.917Z,99.99
2019-03-23T04:07:42.913Z,99.99
2019-03-23T04:08:42.906Z,99.99
2019-03-23T04:09:42.982Z,99.99
2019-03-23T04:10:42.873Z,99.99
2019-03-23T04:11:42.866Z,99.99
2019-03-23T04:12:42.856Z,99.99
2019-03-23T04:13:42.841Z,99.99
2019-03-23T04:14:42.836Z,99.99
2019-03-23T04:15:42.831Z,99.99
2019-03-23T04:16:42.811Z,99.99
2019-03-23T04:17:42.803Z,99.99
2019-03-23T04:18:42.793Z,99.99
2019-03-23T04:19:42.781Z,99.99
2019-03-23T04:20:42.833Z,99.99
2019-03-23T04:21:42.755Z,99.99
2019-03-23T04:22:42.757Z,99.99
2019-03-23T04:23:42.746Z,99.99
2019-03-23T04:24:42.726Z,99.99
2019-03-23T04:25:42.718Z,99.99
2019-03-23T04:26:42.768Z,99.99
2019-03-23T04:27:42.692Z,99.99
2019-03-23T04:28:42.679Z,99.99
2019-03-23T04:29:42.698Z,99.99
2019-03-23T04:30:42.657Z,99.99
2019-03-23T04:31:42.652Z,99.99
2019-03-23T04:32:42.682Z,99.99
2019-03-23T04:33:42.619Z,99.99
2019-03-23T04:34:42.654Z,99.99
2019-03-23T04:35:42.603Z,99.99
2019-03-23T04:36:42.592Z,99.99
2019-03-23T04:37:42.625Z,99.99
2019-03-23T04:38:42.566Z,99.99
2019-03-23T04:39:42.554Z,99.99
2019-03-23T04:40:42.541Z,99.99
2019-03-23T04:41:42.596Z,99.99
2019-03-23T04:42:42.575Z,99.99
2019-03-23T04:43:42.515Z,99.99
2019-03-23T04:44:42.495Z,99.99
2019-03-23T04:45:42.555Z,99.99
2019-03-23T04:46:44.038Z,99.99
2019-03-23T04:47:42.524Z,99.99
2019-03-23T04:48:42.456Z,99.99
2019-03-23T04:49:42.451Z,99.99
2019-03-23T04:50:42.429Z,99.99
2019-03-23T04:51:42.460Z,99.99
2019-03-23T04:52:42.458Z,99.99
2019-03-23T04:53:42.418Z,99.99
2019-03-23T04:54:42.389Z,99.99
2019-03-23T04:55:42.374Z,99.99
2019-03-23T04:56:42.368Z,99.99
2019-03-23T04:57:42.371Z,99.99
2019-03-23T04:58:42.341Z,99.99
2019-03-23T04:59:42.333Z,99.99
2019-03-23T05:00:42.320Z,99.99
2019-03-23T05:01:42.310Z,99.99
2019-03-23T05:02:42.379Z,99.99
2019-03-23T05:03:42.293Z,99.99
2019-03-23T05:04:42.282Z,99.99
2019-03-23T05:05:42.271Z,99.99
2019-03-23T05:06:42.637Z,99.99
2019-03-23T05:07:42.248Z,99.99
2019-03-23T05:08:42.321Z,99.99
2019-03-23T05:09:42.224Z,99.99
2019-03-23T05:10:42.218Z,99.99
2019-03-23T05:11:42.201Z,99.99
2019-03-23T05:12:42.191Z,99.99
2019-03-23T05:13:42.175Z,99.99
2019-03-23T05:14:42.178Z,99.98
2019-03-23T05:15:42.159Z,99.99
2019-03-23T05:16:42.149Z,99.99
2019-03-23T05:17:42.137Z,99.99
2019-03-23T05:18:42.141Z,99.99
2019-03-23T05:19:42.113Z,99.92
2019-03-23T05:20:42.098Z,99.99
2019-03-23T05:21:42.088Z,99.99
2019-03-23T05:22:42.103Z,99.71
2019-03-23T05:23:42.094Z,99.66
2019-03-23T05:24:42.053Z,99.82
2019-03-23T05:25:42.047Z,99.99
2019-03-23T05:26:42.043Z,99.66
2019-03-23T05:27:42.027Z,99.99
2019-03-23T05:28:42.078Z,99.56
2019-03-23T05:29:42.000Z,99.99
2019-03-23T05:30:41.992Z,99.71
2019-03-23T05:31:41.980Z,99.61
2019-03-23T05:32:41.970Z,99.51
2019-03-23T05:33:41.958Z,99.51
2019-03-23T05:34:41.957Z,99.51
2019-03-23T05:35:41.938Z,99.40
2019-03-23T05:36:41.921Z,99.19
2019-03-23T05:37:41.914Z,99.51
2019-03-23T05:38:44.681Z,99.46
2019-03-23T05:39:42.156Z,99.40
2019-03-23T05:40:41.883Z,99.40
2019-03-23T05:41:41.872Z,99.46
2019-03-23T05:42:41.855Z,99.51
2019-03-23T05:43:41.845Z,99.77
2019-03-23T05:44:41.898Z,99.66
2019-03-23T05:45:41.827Z,99.25
2019-03-23T05:46:41.823Z,99.25
2019-03-23T05:47:41.806Z,99.25
2019-03-23T05:48:41.788Z,99.25
2019-03-23T05:49:41.778Z,99.15
2019-03-23T05:50:41.829Z,98.94
2019-03-23T05:51:41.760Z,98.74
2019-03-23T05:52:41.752Z,98.63
2019-03-23T05:53:41.760Z,98.63
2019-03-23T05:54:41.727Z,98.84
2019-03-23T05:55:41.715Z,98.53
2019-03-23T05:56:41.752Z,98.84
2019-03-23T05:57:41.689Z,98.49
2019-03-23T05:58:41.684Z,98.74
2019-03-23T05:59:41.673Z,98.58
2019-03-23T06:00:41.655Z,98.58
2019-03-23T06:01:41.661Z,98.28
2019-03-23T06:02:41.633Z,98.32
2019-03-23T06:03:41.627Z,98.38
2019-03-23T06:04:41.615Z,98.38
2019-03-23T06:05:41.605Z,98.28
2019-03-23T06:06:41.662Z,98.38
2019-03-23T06:07:41.586Z,98.28
2019-03-23T06:08:41.571Z,98.38
2019-03-23T06:09:41.562Z,98.28
2019-03-23T06:10:41.545Z,97.76
2019-03-23T06:11:41.587Z,98.28
2019-03-23T06:12:41.524Z,98.38
2019-03-23T06:13:41.516Z,98.13
2019-03-23T06:14:41.583Z,97.86
2019-03-23T06:15:41.492Z,98.23
2019-03-23T06:16:41.494Z,98.13
2019-03-23T06:17:41.470Z,97.92
2019-03-23T06:18:41.458Z,97.72
2019-03-23T06:19:41.452Z,97.82
2019-03-23T06:20:41.473Z,97.82
2019-03-23T06:21:42.771Z,97.72
2019-03-23T06:22:41.413Z,97.61
2019-03-23T06:23:41.454Z,97.26
2019-03-23T06:24:41.440Z,97.05
2019-03-23T06:25:41.389Z,97.47
2019-03-23T06:26:41.370Z,97.16
2019-03-23T06:27:41.408Z,97.16
2019-03-23T06:28:41.422Z,97.16
2019-03-23T06:29:41.341Z,97.01
2019-03-23T06:30:41.332Z,96.91
2019-03-23T06:31:41.319Z,96.80
2019-03-23T06:32:41.305Z,96.59
2019-03-23T06:33:41.296Z,95.98
2019-03-23T06:34:41.352Z,96.08
2019-03-23T06:35:41.297Z,96.39
2019-03-23T06:36:41.272Z,96.34
2019-03-23T06:37:41.255Z,96.24
2019-03-23T06:38:41.242Z,96.34
2019-03-23T06:39:41.232Z,96.30
2019-03-23T06:40:41.265Z,96.09
2019-03-23T06:41:41.208Z,95.48
2019-03-23T06:42:41.203Z,95.48
2019-03-23T06:43:41.187Z,95.99
2019-03-23T06:44:41.223Z,95.64
2019-03-23T06:45:41.230Z,95.43
2019-03-23T06:46:41.158Z,94.92
2019-03-23T06:47:41.139Z,95.23
2019-03-23T06:48:41.136Z,94.81
2019-03-23T06:49:41.130Z,94.56
2019-03-23T06:50:41.115Z,94.05
2019-03-23T06:51:41.129Z,93.90
2019-03-23T06:52:41.095Z,93.80
2019-03-23T06:53:41.082Z,93.33
2019-03-23T06:54:41.104Z,92.57
2019-03-23T06:55:41.054Z,92.77
2019-03-23T06:56:41.051Z,92.97
2019-03-23T06:57:41.046Z,93.08
2019-03-23T06:58:41.029Z,93.08
2019-03-23T06:59:41.019Z,93.29
2019-03-23T07:00:41.010Z,93.14
2019-03-23T07:01:41.014Z,92.77
2019-03-23T07:02:40.979Z,92.52
2019-03-23T07:03:40.970Z,92.42
2019-03-23T07:04:40.983Z,92.42
2019-03-23T07:05:40.952Z,92.63
2019-03-23T07:06:40.932Z,92.73
2019-03-23T07:07:40.962Z,92.11
2019-03-23T07:08:40.914Z,92.79
2019-03-23T07:09:40.906Z,92.38
2019-03-23T07:10:40.895Z,92.38
2019-03-23T07:11:40.878Z,92.07
2019-03-23T07:12:40.866Z,92.17
2019-03-23T07:13:40.926Z,92.58
2019-03-23T07:14:40.852Z,91.93
2019-03-23T07:15:40.838Z,91.20
2019-03-23T07:16:40.828Z,90.28
2019-03-23T07:17:40.814Z,91.06
2019-03-23T07:18:40.806Z,91.27
2019-03-23T07:19:40.839Z,90.85
2019-03-23T07:20:40.789Z,90.85
2019-03-23T07:21:40.785Z,90.14
2019-03-23T07:22:40.760Z,89.78
2019-03-23T07:23:40.754Z,89.99
2019-03-23T07:24:40.734Z,89.78
2019-03-23T07:25:40.732Z,89.78
2019-03-23T07:26:40.758Z,89.58
2019-03-23T07:27:40.705Z,89.78
2019-03-23T07:28:40.693Z,89.54
2019-03-23T07:29:40.684Z,89.54
2019-03-23T07:30:40.804Z,89.95
2019-03-23T07:31:40.698Z,89.33
2019-03-23T07:32:41.493Z,89.03
2019-03-23T07:33:40.687Z,88.92
2019-03-23T07:34:40.634Z,88.78
2019-03-23T07:35:40.637Z,88.68
2019-03-23T07:36:40.652Z,88.88
2019-03-23T07:37:40.649Z,88.78
2019-03-23T07:38:40.594Z,88.64
2019-03-23T07:39:40.572Z,88.37
2019-03-23T07:40:40.626Z,88.02
2019-03-23T07:41:40.605Z,87.82
2019-03-23T07:42:40.552Z,87.82
2019-03-23T07:43:40.533Z,87.57
2019-03-23T07:44:40.520Z,87.16
2019-03-23T07:45:40.517Z,87.16
2019-03-23T07:46:40.503Z,86.96
2019-03-23T07:47:40.498Z,87.02
2019-03-23T07:48:40.478Z,86.81
2019-03-23T07:49:40.475Z,86.61
2019-03-23T07:50:40.504Z,86.30
2019-03-23T07:51:40.442Z,86.51
2019-03-23T07:52:40.546Z,86.46
2019-03-23T07:53:40.434Z,85.85
2019-03-23T07:54:40.414Z,85.50
2019-03-23T07:55:40.401Z,85.20
2019-03-23T07:56:40.388Z,85.61
2019-03-23T07:57:40.379Z,85.10
2019-03-23T07:58:40.377Z,85.36
2019-03-23T07:59:40.358Z,84.30
2019-03-23T08:00:41.079Z,83.44
2019-03-23T08:01:40.330Z,82.89
2019-03-23T08:02:40.326Z,82.08
2019-03-23T08:03:40.338Z,80.82
2019-03-23T08:04:40.296Z,80.27
2019-03-23T08:05:40.288Z,79.82
2019-03-23T08:06:40.278Z,78.91
2019-03-23T08:07:40.268Z,78.36
2019-03-23T08:08:40.256Z,78.22
2019-03-23T08:09:40.284Z,76.79
2019-03-23T08:10:40.231Z,77.20
2019-03-23T08:11:40.219Z,77.17
2019-03-23T08:12:40.209Z,76.31
2019-03-23T08:13:40.203Z,76.11
2019-03-23T08:14:40.189Z,74.85
2019-03-23T08:15:40.185Z,74.45
2019-03-23T08:16:40.166Z,74.62
2019-03-23T08:17:40.157Z,73.67
2019-03-23T08:18:40.152Z,73.06
2019-03-23T08:19:40.141Z,72.72
2019-03-23T08:20:40.138Z,71.60
2019-03-23T08:21:40.114Z,71.16
2019-03-23T08:22:40.163Z,70.86
2019-03-23T08:23:40.095Z,70.01
2019-03-23T08:24:40.081Z,69.60
2019-03-23T08:25:40.075Z,69.68
2019-03-23T08:26:40.061Z,68.66
2019-03-23T08:27:41.674Z,69.47
2019-03-23T08:28:40.032Z,68.23
2019-03-23T08:29:40.046Z,67.51
2019-03-23T08:30:40.027Z,66.88
2019-03-23T08:31:40.002Z,66.97
2019-03-23T08:32:40.045Z,66.64
2019-03-23T08:33:39.982Z,65.53
2019-03-23T08:34:39.970Z,65.93
2019-03-23T08:35:39.970Z,65.09
2019-03-23T08:36:39.962Z,65.29
2019-03-23T08:37:39.938Z,65.09
2019-03-23T08:38:39.928Z,63.98
2019-03-23T08:39:48.132Z,65.16
2019-03-23T08:40:40.924Z,63.92
2019-03-23T08:41:39.895Z,63.41
2019-03-23T08:42:39.885Z,63.41
2019-03-23T08:43:39.876Z,62.60
2019-03-23T08:44:39.866Z,63.21
2019-03-23T08:45:39.864Z,62.67
2019-03-23T08:46:39.867Z,62.27
2019-03-23T08:47:39.841Z,62.04
2019-03-23T08:48:39.818Z,61.63
2019-03-23T08:49:39.806Z,61.20
2019-03-23T08:50:39.791Z,60.69
2019-03-23T08:51:39.784Z,60.80
2019-03-23T08:52:39.784Z,60.89
2019-03-23T08:53:39.771Z,60.46
2019-03-23T08:54:39.756Z,59.86
2019-03-23T08:55:39.738Z,60.06
2019-03-23T08:56:39.756Z,60.06
2019-03-23T08:57:41.429Z,59.63
2019-03-23T08:58:39.711Z,59.42
2019-03-23T08:59:39.696Z,58.80
2019-03-23T09:00:39.684Z,57.89
2019-03-23T09:01:39.721Z,57.25
2019-03-23T09:02:39.666Z,56.85
2019-03-23T09:03:39.651Z,56.95
2019-03-23T09:04:39.647Z,57.35
2019-03-23T09:05:39.647Z,57.43
2019-03-23T09:06:39.619Z,57.43
2019-03-23T09:07:39.623Z,57.00
2019-03-23T09:08:39.601Z,56.20
2019-03-23T09:09:39.587Z,56.16
2019-03-23T09:10:39.584Z,55.26
2019-03-23T09:11:39.578Z,54.86
2019-03-23T09:12:39.605Z,55.06
2019-03-23T09:13:40.798Z,54.93
2019-03-23T09:14:39.536Z,55.06
2019-03-23T09:15:39.524Z,55.66
2019-03-23T09:16:39.520Z,56.07
2019-03-23T09:17:39.498Z,54.93
2019-03-23T09:18:39.497Z,55.03
2019-03-23T09:19:39.503Z,54.13
2019-03-23T09:20:39.476Z,53.60
2019-03-23T09:21:39.462Z,53.50
2019-03-23T09:22:39.464Z,53.09
2019-03-23T09:23:39.461Z,53.57
2019-03-23T09:24:39.428Z,53.07
2019-03-23T09:25:39.417Z,53.25
2019-03-23T09:26:39.406Z,53.34
2019-03-23T09:27:39.394Z,52.55
2019-03-23T09:28:39.397Z,51.92
2019-03-23T09:29:39.377Z,52.32
2019-03-23T09:30:39.366Z,52.09
2019-03-23T09:31:39.356Z,51.81
2019-03-23T09:32:39.351Z,51.51
2019-03-23T09:33:39.345Z,51.79
2019-03-23T09:34:39.324Z,51.09
2019-03-23T09:35:39.659Z,50.66
2019-03-23T09:36:41.303Z,50.86
2019-03-23T09:37:39.287Z,50.26
2019-03-23T09:38:39.290Z,50.48
2019-03-23T09:39:39.272Z,51.29
2019-03-23T09:40:39.257Z,51.39
2019-03-23T09:41:39.246Z,50.99
2019-03-23T09:42:39.238Z,50.96
2019-03-23T09:43:39.227Z,50.46
2019-03-23T09:44:39.232Z,50.84
2019-03-23T09:45:39.221Z,49.54
2019-03-23T09:46:39.196Z,50.36
2019-03-23T09:47:39.180Z,50.56
2019-03-23T09:48:39.168Z,51.69
2019-03-23T09:49:39.164Z,50.86
2019-03-23T09:50:39.141Z,51.26
2019-03-23T09:51:39.141Z,50.46
2019-03-23T09:52:39.119Z,49.23
2019-03-23T09:53:39.110Z,49.63
2019-03-23T09:54:39.100Z,49.01
2019-03-23T09:55:39.087Z,49.54
2019-03-23T09:56:39.123Z,49.01
2019-03-23T09:57:39.083Z,49.04
2019-03-23T09:58:39.063Z,49.31
2019-03-23T09:59:39.043Z,48.81
2019-03-23T10:01:55.075Z,47.78
2019-03-23T10:02:55.056Z,47.19
2019-03-23T10:03:55.782Z,46.56
2019-03-23T10:04:55.041Z,47.16
2019-03-23T10:05:55.030Z,46.76
2019-03-23T10:06:55.026Z,46.76
2019-03-23T10:07:55.002Z,46.76
2019-03-23T10:08:55.014Z,46.26
2019-03-23T10:09:54.987Z,46.46
2019-03-23T10:10:54.976Z,46.46
2019-03-23T10:11:54.977Z,46.96
2019-03-23T10:12:54.955Z,47.46
2019-03-23T10:13:54.969Z,46.26
2019-03-23T10:14:54.937Z,46.56
2019-03-23T10:15:54.920Z,46.74
2019-03-23T10:16:54.947Z,46.94
2019-03-23T10:17:54.921Z,46.56
2019-03-23T10:18:54.905Z,46.46
2019-03-23T10:19:54.879Z,46.24
2019-03-23T10:20:54.863Z,45.94
2019-03-23T10:21:54.853Z,46.44
2019-03-23T10:22:54.860Z,46.76
2019-03-23T10:23:54.835Z,46.76
2019-03-23T10:24:54.826Z,46.86
2019-03-23T10:25:54.812Z,47.36
2019-03-23T10:26:54.805Z,46.56
2019-03-23T10:27:54.827Z,46.44
2019-03-23T10:28:54.794Z,46.74
2019-03-23T10:29:54.768Z,46.74
2019-03-23T10:30:54.763Z,46.42
2019-03-23T10:31:55.758Z,45.72
2019-03-23T10:32:54.736Z,45.09
2019-03-23T10:33:54.864Z,44.37
2019-03-23T10:34:54.796Z,45.27
2019-03-23T10:35:54.704Z,44.75
2019-03-23T10:36:54.698Z,44.15
2019-03-23T10:37:54.687Z,44.95
2019-03-23T10:38:54.696Z,44.15
2019-03-23T10:39:54.674Z,44.27
2019-03-23T10:40:54.781Z,45.27
2019-03-23T10:41:54.638Z,45.17
2019-03-23T10:42:54.867Z,44.57
2019-03-23T10:43:55.383Z,44.85
2019-03-23T10:44:54.652Z,44.23
2019-03-23T10:45:54.597Z,43.73
2019-03-23T10:46:54.591Z,43.79
2019-03-23T10:48:54.569Z,42.77
2019-03-23T10:49:54.597Z,43.19
2019-03-23T10:50:54.549Z,43.07
2019-03-23T10:51:54.541Z,41.93
2019-03-23T10:52:54.528Z,42.83
2019-03-23T10:53:54.519Z,42.41
2019-03-23T10:54:54.509Z,41.61
2019-03-23T10:55:54.503Z,42.41
2019-03-23T10:56:54.513Z,41.52
2019-03-23T10:57:54.473Z,41.91
2019-03-23T10:58:54.464Z,42.01
2019-03-23T10:59:54.456Z,40.90
2019-03-23T11:00:54.480Z,41.09
2019-03-23T11:01:54.565Z,42.11
2019-03-23T11:02:54.416Z,42.41
2019-03-23T11:03:54.406Z,42.23
2019-03-23T11:04:54.400Z,42.21
2019-03-23T11:05:54.388Z,42.31
2019-03-23T11:06:54.384Z,41.60
2019-03-23T11:07:54.368Z,41.30
2019-03-23T11:08:54.352Z,41.91
2019-03-23T11:09:54.339Z,42.73
2019-03-23T11:10:54.329Z,42.75
2019-03-23T11:11:54.330Z,43.15
2019-03-23T11:12:54.317Z,43.47
2019-03-23T11:13:54.303Z,42.75
2019-03-23T11:14:54.291Z,42.53
2019-03-23T11:15:54.277Z,42.63
2019-03-23T11:16:54.283Z,42.53
2019-03-23T11:17:54.264Z,42.21
2019-03-23T11:18:54.243Z,42.01
2019-03-23T11:19:54.232Z,42.63
2019-03-23T11:20:54.224Z,43.35
2019-03-23T11:21:54.247Z,42.75
2019-03-23T11:22:54.207Z,41.91
2019-03-23T11:23:54.197Z,42.41
2019-03-23T11:24:54.186Z,42.31
2019-03-23T11:25:54.177Z,42.51
2019-03-23T11:26:54.164Z,42.41
2019-03-23T11:27:54.167Z,42.53
2019-03-23T11:28:54.141Z,42.15
2019-03-23T11:29:54.132Z,43.07
2019-03-23T11:30:54.115Z,43.15
2019-03-23T11:31:54.111Z,42.85
2019-03-23T11:32:54.108Z,42.95
2019-03-23T11:33:54.090Z,41.55
2019-03-23T11:34:54.090Z,41.16
2019-03-23T11:35:58.080Z,41.66
2019-03-23T11:36:54.051Z,41.16
2019-03-23T11:37:54.266Z,40.44
2019-03-23T11:38:54.047Z,40.52
2019-03-23T11:39:54.019Z,40.82
2019-03-23T11:40:55.353Z,40.72
2019-03-23T11:41:54.000Z,40.64
2019-03-23T11:42:53.993Z,40.22
2019-03-23T11:43:53.978Z,40.40
2019-03-23T11:44:54.047Z,40.00
2019-03-23T11:45:53.961Z,40.82
2019-03-23T11:46:53.961Z,41.44
2019-03-23T11:47:53.946Z,42.41
2019-03-23T11:48:53.936Z,42.53
2019-03-23T11:49:53.933Z,42.41
2019-03-23T11:50:53.923Z,42.21
2019-03-23T11:51:53.905Z,42.11
2019-03-23T11:52:53.883Z,42.73
2019-03-23T11:53:53.885Z,43.05
2019-03-23T11:54:53.867Z,43.57
2019-03-23T11:55:53.854Z,43.49
2019-03-23T11:56:53.849Z,44.41
2019-03-23T11:57:53.829Z,44.31
2019-03-23T11:58:54.134Z,44.71
2019-03-23T11:59:53.856Z,44.21
2019-03-23T12:00:53.808Z,44.21
2019-03-23T12:01:53.790Z,44.23
2019-03-23T12:02:53.775Z,45.17
2019-03-23T12:03:53.768Z,46.24
2019-03-23T12:04:53.831Z,48.26
2019-03-23T12:05:53.742Z,48.07
2019-03-23T12:06:53.745Z,46.62
2019-03-23T12:07:53.726Z,46.30
2019-03-23T12:08:53.719Z,45.77
2019-03-23T12:09:55.955Z,45.75
2019-03-23T12:11:02.456Z,44.55
2019-03-23T12:11:54.681Z,44.65
2019-03-23T12:12:53.674Z,45.15
2019-03-23T12:13:53.663Z,45.27
2019-03-23T12:14:53.654Z,45.07
2019-03-23T12:15:53.756Z,45.89
2019-03-23T12:16:53.631Z,46.42
2019-03-23T12:17:53.615Z,46.94
2019-03-23T12:18:53.612Z,46.66
2019-03-23T12:19:53.595Z,47.99
2019-03-23T12:20:53.590Z,48.28
2019-03-23T12:21:53.712Z,48.71
2019-03-23T12:22:53.561Z,48.03
2019-03-23T12:23:53.555Z,48.55
2019-03-23T12:24:53.542Z,50.01
2019-03-23T12:25:53.533Z,50.43
2019-03-23T12:26:53.523Z,50.35
2019-03-23T12:27:53.558Z,50.48
2019-03-23T12:28:53.497Z,50.81
2019-03-23T12:29:53.486Z,51.31
2019-03-23T12:30:53.475Z,51.09
2019-03-23T12:31:53.466Z,51.59
2019-03-23T12:32:53.504Z,50.98
2019-03-23T12:33:53.447Z,51.01
2019-03-23T12:34:53.434Z,51.51
2019-03-23T12:35:53.422Z,50.48
2019-03-23T12:36:53.415Z,49.18
2019-03-23T12:37:53.434Z,50.51
2019-03-23T12:38:53.389Z,50.63
2019-03-23T12:39:53.387Z,51.76
2019-03-23T12:40:53.369Z,51.26
2019-03-23T12:41:53.362Z,51.23
2019-03-23T12:42:53.345Z,50.23
2019-03-23T12:43:53.388Z,50.33
2019-03-23T12:44:53.326Z,50.63
2019-03-23T12:45:53.316Z,50.73
2019-03-23T12:46:53.304Z,50.93
2019-03-23T12:47:53.295Z,50.45
2019-03-23T12:48:53.351Z,51.59
2019-03-23T12:49:53.276Z,52.82
2019-03-23T12:50:53.264Z,53.42
2019-03-23T12:51:53.253Z,53.72
2019-03-23T12:52:53.244Z,53.25
2019-03-23T12:53:53.275Z,53.47
2019-03-23T12:54:53.267Z,55.04